createdAt,value
2023-01-29T00:00:13.931Z,97484.16
2023-01-29T00:03:01.903Z,97491.88
2023-01-29T00:05:29.938Z,97492.09
2023-01-29T00:07:57.975Z,97492.80
2023-01-29T00:10:26.836Z,97498.63
2023-01-29T00:12:55.242Z,97498.95
2023-01-29T00:15:23.487Z,97501.55
2023-01-29T00:17:51.608Z,97504.04
2023-01-29T00:20:19.787Z,97504.18
2023-01-29T00:22:47.993Z,97504.73
2023-01-29T00:25:16.088Z,97505.89
2023-01-29T00:27:44.757Z,97500.79
2023-01-29T00:30:13.607Z,97500.97
2023-01-29T00:32:42.037Z,97503.93
2023-01-29T00:35:10.123Z,97508.11
2023-01-29T00:37:38.473Z,97506.99
2023-01-29T00:40:06.857Z,97511.56
2023-01-29T00:42:53.264Z,97508.27
2023-01-29T00:45:21.423Z,97506.43
2023-01-29T00:47:49.319Z,97507.69
2023-01-29T00:50:17.784Z,97504.96
2023-01-29T00:52:46.089Z,97501.90
2023-01-29T00:55:14.095Z,97498.05
2023-01-29T00:57:42.028Z,97504.31
2023-01-29T01:00:14.081Z,97507.42
2023-01-29T01:03:01.346Z,97508.80
2023-01-29T01:05:29.655Z,97506.83
2023-01-29T01:07:58.634Z,97508.45
2023-01-29T01:10:30.461Z,97505.15
2023-01-29T01:13:03.798Z,97504.80
2023-01-29T01:15:36.047Z,97506.22
2023-01-29T01:18:04.708Z,97499.40
2023-01-29T01:20:34.824Z,97499.80
2023-01-29T01:23:03.241Z,97495.93
2023-01-29T01:25:31.743Z,97498.24
2023-01-29T01:30:27.170Z,97497.90
2023-01-29T01:32:55.282Z,97494.98
2023-01-29T01:35:23.198Z,97491.46
2023-01-29T01:37:51.126Z,97488.61
2023-01-29T01:40:21.345Z,97485.07
2023-01-29T01:42:51.915Z,97485.17
2023-01-29T01:45:24.875Z,97485.45
2023-01-29T01:47:56.093Z,97482.91
2023-01-29T01:50:31.340Z,97486.18
2023-01-29T01:53:11.551Z,97491.23
2023-01-29T01:55:56.142Z,97492.29
2023-01-29T01:58:53.059Z,97492.52
2023-01-29T02:01:30.243Z,97488.92
2023-01-29T02:04:23.119Z,97494.00
2023-01-29T02:07:12.475Z,97496.86
2023-01-29T02:09:46.535Z,97497.98
2023-01-29T02:12:16.396Z,97498.28
2023-01-29T02:14:44.904Z,97495.80
2023-01-29T02:17:18.859Z,97495.27
2023-01-29T02:20:14.535Z,97494.19
2023-01-29T02:22:56.074Z,97495.36
2023-01-29T02:26:13.596Z,97497.24
2023-01-29T02:29:22.575Z,97500.42
2023-01-29T02:32:03.578Z,97501.85
2023-01-29T02:35:10.381Z,97502.61
2023-01-29T02:38:15.790Z,97503.94
2023-01-29T02:40:47.155Z,97501.44
2023-01-29T02:43:46.751Z,97505.84
2023-01-29T02:46:40.183Z,97508.00
2023-01-29T02:49:17.442Z,97515.15
2023-01-29T02:51:55.608Z,97519.61
2023-01-29T02:54:28.628Z,97524.35
2023-01-29T02:56:59.834Z,97529.42
2023-01-29T02:59:36.870Z,97536.07
2023-01-29T03:02:16.663Z,97541.27
2023-01-29T03:04:53.943Z,97543.12
2023-01-29T03:07:42.399Z,97546.29
2023-01-29T03:10:35.364Z,97549.85
2023-01-29T03:13:14.767Z,97548.81
2023-01-29T03:15:47.478Z,97550.69
2023-01-29T03:18:22.564Z,97553.41
2023-01-29T03:20:58.636Z,97561.13
2023-01-29T03:23:47.917Z,97564.23
2023-01-29T03:26:37.321Z,97561.45
2023-01-29T03:29:25.668Z,97556.61
2023-01-29T03:32:08.275Z,97558.45
2023-01-29T03:34:47.950Z,97559.58
2023-01-29T03:37:34.987Z,97555.86
2023-01-29T03:40:05.032Z,97559.15
2023-01-29T03:43:08.519Z,97565.09
2023-01-29T03:45:48.369Z,97571.50
2023-01-29T03:48:22.027Z,97574.82
2023-01-29T03:50:57.860Z,97577.08
2023-01-29T03:53:39.163Z,97576.24
2023-01-29T03:56:09.241Z,97576.24
2023-01-29T03:58:43.798Z,97577.46
2023-01-29T04:01:24.204Z,97575.92
2023-01-29T04:04:26.962Z,97572.75
2023-01-29T04:07:00.307Z,97575.29
2023-01-29T04:09:33.967Z,97576.90
2023-01-29T04:12:11.599Z,97578.26
2023-01-29T04:14:39.772Z,97577.44
2023-01-29T04:17:22.901Z,97579.56
2023-01-29T04:19:50.906Z,97581.75
2023-01-29T04:22:25.128Z,97582.27
2023-01-29T04:24:53.203Z,97582.02
2023-01-29T04:27:33.314Z,97578.04
2023-01-29T04:30:20.066Z,97575.12
2023-01-29T04:33:03.309Z,97569.17
2023-01-29T04:35:47.715Z,97569.29
2023-01-29T04:38:41.435Z,97568.91
2023-01-29T04:41:34.188Z,97566.95
2023-01-29T04:44:11.354Z,97566.48
2023-01-29T04:47:17.144Z,97568.60
2023-01-29T04:50:11.267Z,97574.73
2023-01-29T04:52:49.888Z,97575.73
2023-01-29T04:55:21.944Z,97581.67
2023-01-29T04:57:52.947Z,97579.27
2023-01-29T05:00:28.838Z,97579.36
2023-01-29T05:02:57.046Z,97580.70
2023-01-29T05:05:25.019Z,97581.52
2023-01-29T05:07:54.385Z,97586.65
2023-01-29T05:10:24.253Z,97592.90
2023-01-29T05:13:00.446Z,97596.45
2023-01-29T05:15:35.941Z,97598.92
2023-01-29T05:18:09.006Z,97607.02
2023-01-29T05:20:39.705Z,97611.70
2023-01-29T05:23:25.811Z,97612.92
2023-01-29T05:25:54.114Z,97612.69
2023-01-29T05:28:22.124Z,97616.23
2023-01-29T05:30:53.428Z,97618.70
2023-01-29T05:33:26.668Z,97618.46
2023-01-29T05:35:55.535Z,97620.48
2023-01-29T05:38:23.790Z,97620.73
2023-01-29T05:40:52.025Z,97625.11
2023-01-29T05:43:22.066Z,97625.41
2023-01-29T05:45:58.838Z,97627.05
2023-01-29T05:48:29.155Z,97622.71
2023-01-29T05:51:04.341Z,97626.14
2023-01-29T05:53:33.099Z,97630.31
2023-01-29T05:56:02.549Z,97632.26
2023-01-29T05:58:31.933Z,97635.69
2023-01-29T06:01:18.381Z,97638.42
2023-01-29T06:03:47.217Z,97634.05
2023-01-29T06:06:16.264Z,97638.45
2023-01-29T06:08:44.314Z,97641.61
2023-01-29T06:11:14.720Z,97644.02
2023-01-29T06:13:42.695Z,97648.15
2023-01-29T06:16:12.695Z,97651.92
2023-01-29T06:18:41.702Z,97653.22
2023-01-29T06:21:12.197Z,97654.34
2023-01-29T06:23:40.633Z,97657.55
2023-01-29T06:26:11.919Z,97657.22
2023-01-29T06:28:40.335Z,97660.69
2023-01-29T06:31:24.373Z,97663.61
2023-01-29T06:33:55.349Z,97665.61
2023-01-29T06:36:23.268Z,97663.66
2023-01-29T06:38:51.140Z,97663.48
2023-01-29T06:41:22.774Z,97661.45
2023-01-29T06:43:51.626Z,97665.79
2023-01-29T06:46:19.562Z,97668.16
2023-01-29T06:48:47.623Z,97665.80
2023-01-29T06:51:15.521Z,97666.17
2023-01-29T06:53:45.771Z,97665.94
2023-01-29T06:56:14.329Z,97666.98
2023-01-29T06:58:43.626Z,97669.39
2023-01-29T07:01:22.304Z,97676.67
2023-01-29T07:03:57.059Z,97673.84
2023-01-29T07:06:31.464Z,97671.33
2023-01-29T07:08:59.602Z,97666.92
2023-01-29T07:11:27.483Z,97664.48
2023-01-29T07:13:55.346Z,97666.13
2023-01-29T07:16:23.581Z,97663.10
2023-01-29T07:18:51.876Z,97659.61
2023-01-29T07:21:22.082Z,97653.75
2023-01-29T07:23:50.020Z,97652.04
2023-01-29T07:26:17.872Z,97649.22
2023-01-29T07:28:45.744Z,97648.34
2023-01-29T07:31:15.037Z,97651.77
2023-01-29T07:33:44.637Z,97657.73
2023-01-29T07:36:13.763Z,97660.38
2023-01-29T07:38:41.617Z,97661.63
2023-01-29T07:41:11.805Z,97663.31
2023-01-29T07:43:39.746Z,97668.49
2023-01-29T07:46:07.779Z,97672.46
2023-01-29T07:48:36.260Z,97671.14
2023-01-29T07:51:04.284Z,97671.18
2023-01-29T07:53:32.892Z,97677.58
2023-01-29T07:56:00.852Z,97672.38
2023-01-29T07:58:28.793Z,97670.35
2023-01-29T08:00:56.737Z,97665.04
2023-01-29T08:03:24.651Z,97665.48
2023-01-29T08:05:52.563Z,97668.29
2023-01-29T08:08:20.494Z,97665.13
2023-01-29T08:10:48.351Z,97663.28
2023-01-29T08:13:16.664Z,97665.70
2023-01-29T08:15:45.841Z,97668.65
2023-01-29T08:18:14.796Z,97670.98
2023-01-29T08:20:42.752Z,97672.89
2023-01-29T08:23:14.676Z,97675.40
2023-01-29T08:25:42.931Z,97676.62
2023-01-29T08:28:11.852Z,97680.18
2023-01-29T08:30:40.329Z,97686.32
2023-01-29T08:33:08.381Z,97689.86
2023-01-29T08:35:36.953Z,97690.10
2023-01-29T08:38:06.253Z,97688.81
2023-01-29T08:40:34.869Z,97693.05
2023-01-29T08:43:07.811Z,97693.77
2023-01-29T08:45:42.450Z,97695.43
2023-01-29T08:48:10.995Z,97695.27
2023-01-29T08:50:39.156Z,97695.23
2023-01-29T08:53:08.778Z,97698.58
2023-01-29T08:55:41.037Z,97702.56
2023-01-29T08:58:12.392Z,97703.32
2023-01-29T09:00:40.289Z,97706.04
2023-01-29T09:03:08.288Z,97706.33
2023-01-29T09:05:37.953Z,97704.54
2023-01-29T09:08:07.713Z,97703.55
2023-01-29T09:10:36.146Z,97703.88
2023-01-29T09:13:04.713Z,97704.31
2023-01-29T09:15:32.789Z,97705.67
2023-01-29T09:18:04.316Z,97701.83
2023-01-29T09:20:32.471Z,97704.55
2023-01-29T09:23:05.894Z,97704.43
2023-01-29T09:25:33.872Z,97705.26
2023-01-29T09:28:02.114Z,97703.64
2023-01-29T09:30:30.129Z,97704.88
2023-01-29T09:33:00.563Z,97702.16
2023-01-29T09:35:28.433Z,97699.04
2023-01-29T09:37:57.054Z,97699.95
2023-01-29T09:40:29.469Z,97701.91
2023-01-29T09:43:22.681Z,97694.95
2023-01-29T09:45:59.755Z,97686.56
2023-01-29T09:48:32.173Z,97679.50
2023-01-29T09:51:06.276Z,97679.33
2023-01-29T09:53:43.628Z,97671.26
2023-01-29T09:56:28.927Z,97663.77
2023-01-29T09:59:01.682Z,97665.66
2023-01-29T10:01:45.511Z,97666.15
2023-01-29T10:04:34.679Z,97665.94
2023-01-29T10:07:19.934Z,97667.84
2023-01-29T10:09:57.741Z,97661.59
2023-01-29T10:12:53.949Z,97662.86
2023-01-29T10:15:21.935Z,97661.53
2023-01-29T10:17:50.645Z,97660.56
2023-01-29T10:20:33.829Z,97661.96
2023-01-29T10:23:16.717Z,97658.23
2023-01-29T10:25:46.312Z,97663.73
2023-01-29T10:28:20.982Z,97663.98
2023-01-29T10:30:58.013Z,97666.48
2023-01-29T10:33:49.238Z,97673.20
2023-01-29T10:36:49.266Z,97677.61
2023-01-29T10:39:20.600Z,97681.90
2023-01-29T10:42:27.366Z,97683.80
2023-01-29T10:45:07.501Z,97678.61
2023-01-29T10:47:52.864Z,97678.08
2023-01-29T10:50:26.951Z,97679.05
2023-01-29T10:53:06.692Z,97676.36
2023-01-29T10:56:21.916Z,97678.14
2023-01-29T10:59:01.673Z,97677.80
2023-01-29T11:01:29.538Z,97676.94
2023-01-29T11:04:11.988Z,97674.86
2023-01-29T11:06:39.947Z,97683.29
2023-01-29T11:09:10.879Z,97678.63
2023-01-29T11:11:48.654Z,97676.23
2023-01-29T11:14:22.665Z,97675.71
2023-01-29T11:16:51.320Z,97664.74
2023-01-29T11:19:37.097Z,97662.55
2023-01-29T11:22:05.136Z,97661.31
2023-01-29T11:24:32.943Z,97662.28
2023-01-29T11:27:00.778Z,97660.95
2023-01-29T11:29:39.350Z,97656.48
2023-01-29T11:32:19.939Z,97655.13
2023-01-29T11:35:16.353Z,97653.02
2023-01-29T11:37:46.931Z,97651.14
2023-01-29T11:40:38.694Z,97649.30
2023-01-29T11:43:20.159Z,97647.71
2023-01-29T11:45:55.271Z,97648.25
2023-01-29T11:48:28.911Z,97644.49
2023-01-29T11:51:00.850Z,97635.20
2023-01-29T11:53:45.554Z,97635.16
2023-01-29T11:56:21.803Z,97633.92
2023-01-29T11:58:51.732Z,97630.95
2023-01-29T12:01:31.409Z,97631.33
2023-01-29T12:04:00.344Z,97625.89
2023-01-29T12:06:38.155Z,97626.47
2023-01-29T12:09:16.832Z,97627.14
2023-01-29T12:11:44.979Z,97622.15
2023-01-29T12:14:34.247Z,97625.64
2023-01-29T12:17:11.175Z,97626.60
2023-01-29T12:19:52.904Z,97627.77
2023-01-29T12:22:26.476Z,97626.77
2023-01-29T12:25:00.514Z,97623.08
2023-01-29T12:27:43.485Z,97623.98
2023-01-29T12:30:20.330Z,97626.70
2023-01-29T12:33:15.006Z,97627.13
2023-01-29T12:35:48.247Z,97627.52
2023-01-29T12:38:22.021Z,97625.58
2023-01-29T12:40:55.325Z,97623.70
2023-01-29T12:43:38.815Z,97625.34
2023-01-29T12:46:11.539Z,97628.17
2023-01-29T12:48:43.901Z,97624.55
2023-01-29T12:51:20.116Z,97627.93
2023-01-29T12:54:00.465Z,97628.95
2023-01-29T12:56:42.136Z,97630.46
2023-01-29T12:59:29.349Z,97633.48
2023-01-29T13:02:04.264Z,97629.46
2023-01-29T13:04:47.036Z,97630.83
2023-01-29T13:07:26.163Z,97630.83
2023-01-29T13:10:05.692Z,97632.73
2023-01-29T13:12:34.747Z,97630.25
2023-01-29T13:15:18.091Z,97635.96
2023-01-29T13:18:31.121Z,97635.45
2023-01-29T13:21:01.046Z,97632.77
2023-01-29T13:23:37.187Z,97630.94
2023-01-29T13:26:06.051Z,97629.97
2023-01-29T13:28:34.325Z,97633.58
2023-01-29T13:31:11.291Z,97635.58
2023-01-29T13:33:41.831Z,97636.04
2023-01-29T13:36:20.079Z,97637.73
2023-01-29T13:39:07.635Z,97639.88
2023-01-29T13:41:42.506Z,97643.20
2023-01-29T13:44:50.448Z,97643.32
2023-01-29T13:47:29.495Z,97643.08
2023-01-29T13:50:09.618Z,97641.00
2023-01-29T13:52:44.641Z,97644.09
2023-01-29T13:55:15.837Z,97644.92
2023-01-29T13:57:43.849Z,97644.90
2023-01-29T14:00:20.733Z,97646.05
2023-01-29T14:03:08.875Z,97641.66
2023-01-29T14:05:55.177Z,97638.54
2023-01-29T14:08:34.950Z,97640.05
2023-01-29T14:11:19.211Z,97638.73
2023-01-29T14:13:52.461Z,97634.80
2023-01-29T14:16:23.565Z,97636.06
2023-01-29T14:19:00.730Z,97638.65
2023-01-29T14:21:34.603Z,97635.09
2023-01-29T14:24:18.915Z,97634.58
2023-01-29T14:26:49.530Z,97642.55
2023-01-29T14:29:33.830Z,97643.61
2023-01-29T14:32:08.132Z,97643.59
2023-01-29T14:34:47.875Z,97646.67
2023-01-29T14:37:15.811Z,97649.13
2023-01-29T14:39:58.407Z,97652.58
2023-01-29T14:42:32.998Z,97654.67
2023-01-29T14:45:09.249Z,97653.80
2023-01-29T14:47:37.107Z,97655.32
2023-01-29T14:50:31.771Z,97656.65
2023-01-29T14:53:32.119Z,97655.15
2023-01-29T14:56:02.978Z,97656.77
2023-01-29T14:58:43.110Z,97656.91
2023-01-29T15:01:25.854Z,97656.36
2023-01-29T15:04:21.516Z,97653.52
2023-01-29T15:07:01.657Z,97657.66
2023-01-29T15:10:22.015Z,97661.52
2023-01-29T15:13:03.251Z,97663.02
2023-01-29T15:15:53.076Z,97666.69
2023-01-29T15:18:32.166Z,97668.06
2023-01-29T15:21:11.805Z,97671.14
2023-01-29T15:23:40.887Z,97665.20
2023-01-29T15:26:19.355Z,97670.52
2023-01-29T15:29:03.572Z,97671.80
2023-01-29T15:31:33.152Z,97670.85
2023-01-29T15:34:06.857Z,97668.44
2023-01-29T15:36:37.165Z,97664.41
2023-01-29T15:39:23.891Z,97661.97
2023-01-29T15:42:10.687Z,97662.55
2023-01-29T15:44:45.108Z,97660.86
2023-01-29T15:47:14.554Z,97662.16
2023-01-29T15:49:45.190Z,97665.98
2023-01-29T15:52:17.902Z,97669.52
2023-01-29T15:54:46.654Z,97671.67
2023-01-29T15:57:23.428Z,97672.08
2023-01-29T15:59:54.073Z,97672.55
2023-01-29T16:02:34.516Z,97670.77
2023-01-29T16:05:05.179Z,97672.88
2023-01-29T16:07:35.105Z,97671.73
2023-01-29T16:10:04.416Z,97676.95
2023-01-29T16:12:33.690Z,97675.23
2023-01-29T16:15:03.890Z,97671.56
2023-01-29T16:17:36.862Z,97669.53
2023-01-29T16:20:07.086Z,97666.34
2023-01-29T16:22:37.312Z,97658.67
2023-01-29T16:25:07.849Z,97653.57
2023-01-29T16:27:35.784Z,97651.05
2023-01-29T16:30:05.664Z,97650.58
2023-01-29T16:32:33.804Z,97652.13
2023-01-29T16:35:01.915Z,97654.14
2023-01-29T16:37:36.444Z,97659.42
2023-01-29T16:40:33.085Z,97659.33
2023-01-29T16:43:22.745Z,97659.36
2023-01-29T16:46:04.922Z,97660.08
2023-01-29T16:48:34.838Z,97660.61
2023-01-29T16:51:14.137Z,97663.54
2023-01-29T16:54:21.611Z,97664.89
2023-01-29T16:56:52.901Z,97667.19
2023-01-29T16:59:28.562Z,97672.02
2023-01-29T17:01:56.840Z,97674.42
2023-01-29T17:04:25.009Z,97673.54
2023-01-29T17:07:01.674Z,97672.15
2023-01-29T17:09:33.455Z,97670.40
2023-01-29T17:12:05.612Z,97674.12
2023-01-29T17:14:34.490Z,97672.33
2023-01-29T17:17:05.660Z,97671.05
2023-01-29T17:19:33.606Z,97670.04
2023-01-29T17:22:04.795Z,97672.76
2023-01-29T17:24:32.656Z,97671.95
2023-01-29T17:27:01.692Z,97672.16
2023-01-29T17:29:31.310Z,97669.00
2023-01-29T17:32:02.445Z,97671.10
2023-01-29T17:34:30.410Z,97671.44
2023-01-29T17:36:58.291Z,97667.14
2023-01-29T17:39:26.280Z,97668.11
2023-01-29T17:41:56.162Z,97668.67
2023-01-29T17:44:27.727Z,97666.30
2023-01-29T17:46:55.785Z,97667.56
2023-01-29T17:49:29.633Z,97668.73
2023-01-29T17:51:57.467Z,97666.13
2023-01-29T17:54:27.992Z,97665.65
2023-01-29T17:56:56.540Z,97667.89
2023-01-29T17:59:28.582Z,97667.56
2023-01-29T18:01:56.691Z,97669.46
2023-01-29T18:04:25.002Z,97672.08
2023-01-29T18:06:54.416Z,97671.80
2023-01-29T18:09:22.466Z,97675.76
2023-01-29T18:11:51.459Z,97682.19
2023-01-29T18:14:19.695Z,97683.65
2023-01-29T18:16:47.697Z,97686.45
2023-01-29T18:19:21.040Z,97684.79
2023-01-29T18:21:50.490Z,97684.31
2023-01-29T18:24:20.432Z,97686.63
2023-01-29T18:26:49.653Z,97685.27
2023-01-29T18:29:17.890Z,97681.64
2023-01-29T18:31:49.250Z,97680.20
2023-01-29T18:34:17.318Z,97683.05
2023-01-29T18:36:47.685Z,97687.89
2023-01-29T18:39:16.524Z,97690.12
2023-01-29T18:41:44.706Z,97691.33
2023-01-29T18:44:12.720Z,97693.73
2023-01-29T18:46:40.622Z,97694.63
2023-01-29T18:49:08.710Z,97690.59
2023-01-29T18:51:36.653Z,97689.70
2023-01-29T18:54:04.821Z,97688.04
2023-01-29T18:56:32.704Z,97690.90
2023-01-29T18:59:00.648Z,97687.89
2023-01-29T19:01:28.816Z,97690.39
2023-01-29T19:03:59.128Z,97689.00
2023-01-29T19:06:26.992Z,97688.69
2023-01-29T19:08:54.893Z,97687.83
2023-01-29T19:11:22.813Z,97687.05
2023-01-29T19:13:50.967Z,97686.59
2023-01-29T19:16:18.872Z,97687.47
2023-01-29T19:18:46.722Z,97690.22
2023-01-29T19:21:16.283Z,97685.26
2023-01-29T19:23:44.934Z,97687.89
2023-01-29T19:26:13.683Z,97690.63
2023-01-29T19:28:42.057Z,97691.25
2023-01-29T19:31:10.160Z,97696.45
2023-01-29T19:33:39.197Z,97695.95
2023-01-29T19:36:07.745Z,97696.58
2023-01-29T19:38:38.582Z,97697.39
2023-01-29T19:41:06.693Z,97700.50
2023-01-29T19:43:34.645Z,97697.38
2023-01-29T19:46:02.756Z,97698.94
2023-01-29T19:48:30.676Z,97700.56
2023-01-29T19:51:04.351Z,97700.68
2023-01-29T19:53:32.368Z,97702.21
2023-01-29T19:56:04.972Z,97703.05
2023-01-29T19:58:33.406Z,97708.75
2023-01-29T20:01:07.340Z,97708.89
2023-01-29T20:03:35.314Z,97709.42
2023-01-29T20:06:08.512Z,97712.11
2023-01-29T20:08:36.787Z,97712.06
2023-01-29T20:11:05.705Z,97707.59
2023-01-29T20:13:36.687Z,97706.13
2023-01-29T20:16:05.698Z,97706.89
2023-01-29T20:18:33.738Z,97702.02
2023-01-29T20:21:10.299Z,97701.91
2023-01-29T20:23:40.087Z,97698.58
2023-01-29T20:26:12.384Z,97703.90
2023-01-29T20:28:40.714Z,97698.74
2023-01-29T20:31:09.825Z,97698.55
2023-01-29T20:33:39.560Z,97698.98
2023-01-29T20:36:10.076Z,97703.35
2023-01-29T20:38:38.336Z,97703.73
2023-01-29T20:41:14.205Z,97698.75
2023-01-29T20:43:43.170Z,97702.15
2023-01-29T20:46:12.073Z,97704.98
2023-01-29T20:48:42.077Z,97704.95
2023-01-29T20:51:15.377Z,97702.85
2023-01-29T20:53:45.524Z,97700.29
2023-01-29T20:56:15.758Z,97702.21
2023-01-29T20:58:44.410Z,97701.17
2023-01-29T21:01:15.547Z,97695.00
2023-01-29T21:03:43.802Z,97691.92
2023-01-29T21:06:11.897Z,97693.38
2023-01-29T21:08:40.668Z,97692.86
2023-01-29T21:11:09.779Z,97682.88
2023-01-29T21:13:37.952Z,97682.72
2023-01-29T21:16:06.215Z,97679.29
2023-01-29T21:18:34.092Z,97680.11
2023-01-29T21:21:01.955Z,97685.48
2023-01-29T21:23:30.011Z,97687.45
2023-01-29T21:26:05.142Z,97682.23
2023-01-29T21:28:33.874Z,97671.97
2023-01-29T21:31:04.015Z,97672.67
2023-01-29T21:33:32.240Z,97685.42
2023-01-29T21:36:00.759Z,97686.92
2023-01-29T21:38:28.722Z,97689.02
2023-01-29T21:41:01.597Z,97691.39
2023-01-29T21:43:29.930Z,97687.57
2023-01-29T21:46:00.225Z,97688.19
2023-01-29T21:48:28.239Z,97692.98
2023-01-29T21:50:56.191Z,97694.48
2023-01-29T21:53:24.224Z,97689.92
2023-01-29T21:55:52.098Z,97686.84
2023-01-29T21:58:20.709Z,97688.34
2023-01-29T22:00:50.677Z,97687.11
2023-01-29T22:03:18.731Z,97682.95
2023-01-29T22:05:46.652Z,97682.37
2023-01-29T22:08:14.946Z,97684.58
2023-01-29T22:10:42.961Z,97682.14
2023-01-29T22:13:10.974Z,97681.30
2023-01-29T22:15:38.797Z,97670.86
2023-01-29T22:18:06.661Z,97666.14
2023-01-29T22:20:36.694Z,97666.68
2023-01-29T22:23:04.799Z,97664.37
2023-01-29T22:25:33.436Z,97664.94
2023-01-29T22:28:01.383Z,97662.97
2023-01-29T22:30:29.430Z,97661.66
2023-01-29T22:32:57.282Z,97658.35
2023-01-29T22:35:25.376Z,97658.74
2023-01-29T22:37:54.327Z,97660.98
2023-01-29T22:40:22.268Z,97662.42
2023-01-29T22:42:50.109Z,97659.63
2023-01-29T22:45:18.063Z,97654.89
2023-01-29T22:47:46.001Z,97653.38
2023-01-29T22:50:14.398Z,97648.42
2023-01-29T22:52:43.322Z,97643.20
2023-01-29T22:55:13.561Z,97644.20
2023-01-29T22:57:41.483Z,97641.95
2023-01-29T23:00:11.114Z,97649.12
2023-01-29T23:02:39.062Z,97649.90
2023-01-29T23:05:07.923Z,97653.27
2023-01-29T23:07:35.895Z,97650.47
2023-01-29T23:10:05.781Z,97654.76
2023-01-29T23:12:34.077Z,97659.86
2023-01-29T23:15:02.095Z,97664.82
2023-01-29T23:17:29.933Z,97664.48
2023-01-29T23:19:57.832Z,97670.23
2023-01-29T23:22:25.829Z,97664.93
2023-01-29T23:24:53.819Z,97661.64
2023-01-29T23:27:21.658Z,97663.16
2023-01-29T23:29:49.526Z,97661.84
2023-01-29T23:32:20.013Z,97663.84
2023-01-29T23:34:48.190Z,97661.19
2023-01-29T23:37:16.135Z,97660.67
2023-01-29T23:39:44.032Z,97660.80
2023-01-29T23:42:12.015Z,97655.77
2023-01-29T23:44:40.411Z,97660.20
2023-01-29T23:47:09.419Z,97664.39
2023-01-29T23:49:37.507Z,97662.75
2023-01-29T23:52:05.455Z,97658.95
2023-01-29T23:54:33.333Z,97655.33
2023-01-29T23:57:01.353Z,97651.52
2023-01-29T23:59:29.332Z,97645.59
